Aviation Digital Data Service (ADDS)

Output produced by METARs form (1724 UTC 16 June 2019)
found at http://www.aviationweather.gov/metar/data/
 
GVAC 161700Z 04015KT 9999 FEW014 SCT200 27/19 Q1017 NOSIG
TAF GVAC 161100Z 1612/1718 03018KT 9999 SCT014
       
GVBA 161700Z 02014KT 9999 FEW015 26/20 Q1017 NOSIG
TAF GVBA 161100Z 1612/1718 03018KT 9999 SCT015
       
GVSV 161700Z 05021KT 9999 FEW018 28/19 Q1017 NOSIG
TAF GVSV 161100Z 1612/1718 06020KT 9999 FEW020 
     PROB40 
     TEMPO 1614/1620 06024G34KT